KSPI/SPI METAR and TAF weather

Enter ICAO airport designator
Station Type Date Time Source
KSPI METAR 2020/07/11 23:52 UTC NOAA

KSPI 112352Z AUTO 26005KT 10SM CLR 32/23 A2982 RMK AO2 SLP093 T03170228 10328 20317 56016


Station Type Date Time Source
KSPI Decoded METAR 2020/07/11 23:52 UTC NOAA

ABRAHAM LINCOLN CAPITAL AIRPORT , IL, United States (KSPI) 39-51N 89-41W 181M
Jul 11, 2020 - 07:52 PM EDT / 2020.07.11 2352 UTC
Wind: from the W (260 degrees) at 6 MPH (5 KT):0
Visibility: 10 mile(s):0
Sky conditions: clear
Temperature: 89.1 F (31.7 C)
Heat index: 97.0 F (36.1 C):1
Dew Point: 73.0 F (22.8 C)
Relative Humidity: 59%
Pressure (altimeter): 29.82 in. Hg (1009 hPa)
Pressure tendency: 0.05 inches (1.6 hPa) lower than three hours ago
ob: KSPI 112352Z AUTO 26005KT 10SM CLR 32/23 A2982 RMK AO2 SLP093 T03170228 10328 20317 56016
cycle: 0

Station Type Date Time Source
KSPI TAF 2020/07/11 18:33 UTC NOAA

TAF KSPI 111730Z 1118/1218 25010KT P6SM FEW045
FM112300 27006KT P6SM SCT070

Example: see airport list